createdAt,value
2023-04-27T00:01:56.891Z,9.30
2023-04-27T00:04:24.141Z,9.30
2023-04-27T00:06:52.795Z,9.30
2023-04-27T00:09:21.314Z,9.30
2023-04-27T00:11:51.436Z,9.20
2023-04-27T00:14:18.523Z,9.20
2023-04-27T00:16:48.393Z,9.20
2023-04-27T00:19:17.084Z,9.20
2023-04-27T00:21:43.950Z,9.20
2023-04-27T00:24:11.449Z,9.20
2023-04-27T00:26:39.287Z,9.20
2023-04-27T00:29:09.171Z,9.10
2023-04-27T00:31:36.345Z,9.10
2023-04-27T00:34:03.488Z,9.10
2023-04-27T00:36:32.085Z,9.10
2023-04-27T00:38:59.673Z,9.10
2023-04-27T00:41:27.881Z,9.20
2023-04-27T00:43:55.892Z,9.20
2023-04-27T00:46:23.436Z,9.10
2023-04-27T00:48:51.591Z,9.10
2023-04-27T00:51:19.628Z,9.10
2023-04-27T00:53:47.114Z,9.10
2023-04-27T00:56:14.682Z,9.10
2023-04-27T00:58:42.895Z,9.00
2023-04-27T01:01:11.415Z,9.00
2023-04-27T01:03:39.242Z,9.00
2023-04-27T01:06:07.031Z,8.90
2023-04-27T01:08:34.632Z,8.90
2023-04-27T01:11:02.244Z,8.90
2023-04-27T01:13:29.756Z,8.90
2023-04-27T01:15:57.371Z,8.80
2023-04-27T01:18:24.725Z,8.80
2023-04-27T01:20:52.766Z,8.70
2023-04-27T01:23:19.788Z,8.70
2023-04-27T01:25:47.075Z,8.70
2023-04-27T01:28:14.102Z,8.60
2023-04-27T01:30:42.022Z,8.50
2023-04-27T01:33:09.667Z,8.50
2023-04-27T01:35:37.804Z,8.50
2023-04-27T01:38:05.597Z,8.50
2023-04-27T01:40:32.942Z,8.50
2023-04-27T01:43:00.165Z,8.40
2023-04-27T01:45:27.603Z,8.40
2023-04-27T01:47:55.283Z,8.40
2023-04-27T01:50:23.259Z,8.30
2023-04-27T01:52:51.003Z,8.30
2023-04-27T01:55:18.763Z,8.30
2023-04-27T01:57:45.774Z,8.20
2023-04-27T02:00:14.605Z,8.20
2023-04-27T02:02:42.734Z,8.10
2023-04-27T02:05:11.125Z,8.20
2023-04-27T02:07:38.921Z,8.10
2023-04-27T02:10:07.512Z,8.10
2023-04-27T02:12:35.412Z,8.00
2023-04-27T02:15:07.513Z,8.00
2023-04-27T02:17:39.597Z,8.00
2023-04-27T02:20:08.176Z,7.90
2023-04-27T02:22:35.936Z,7.80
2023-04-27T02:25:04.462Z,7.80
2023-04-27T02:27:32.262Z,7.70
2023-04-27T02:29:59.498Z,7.70
2023-04-27T02:32:28.379Z,7.60
2023-04-27T02:34:57.431Z,7.60
2023-04-27T02:37:24.999Z,7.50
2023-04-27T02:39:52.440Z,7.50
2023-04-27T02:42:19.616Z,7.50
2023-04-27T02:44:49.593Z,7.40
2023-04-27T02:47:19.400Z,7.40
2023-04-27T02:49:46.909Z,7.40
2023-04-27T02:52:14.419Z,7.40
2023-04-27T02:54:41.974Z,7.40
2023-04-27T02:57:10.216Z,7.40
2023-04-27T02:59:42.263Z,7.30
2023-04-27T03:02:09.858Z,7.30
2023-04-27T03:04:38.395Z,7.20
2023-04-27T03:07:06.724Z,7.20
2023-04-27T03:09:34.309Z,7.20
2023-04-27T03:12:01.346Z,7.20
2023-04-27T03:14:31.462Z,7.20
2023-04-27T03:17:08.803Z,7.10
2023-04-27T03:19:36.275Z,7.10
2023-04-27T03:22:04.617Z,7.10
2023-04-27T03:24:32.215Z,7.00
2023-04-27T03:26:59.509Z,7.00
2023-04-27T03:29:27.291Z,7.00
2023-04-27T03:31:54.295Z,6.90
2023-04-27T03:34:22.898Z,6.90
2023-04-27T03:36:50.169Z,6.90
2023-04-27T03:39:17.758Z,6.90
2023-04-27T03:41:45.384Z,6.90
2023-04-27T03:44:12.482Z,6.90
2023-04-27T03:46:39.297Z,6.80
2023-04-27T03:49:06.656Z,6.80
2023-04-27T03:51:33.647Z,6.80
2023-04-27T03:54:01.326Z,6.70
2023-04-27T03:56:28.092Z,6.70
2023-04-27T03:58:55.355Z,6.70
2023-04-27T04:01:22.886Z,6.70
2023-04-27T04:03:51.705Z,6.70
2023-04-27T04:06:19.587Z,6.70
2023-04-27T04:08:47.037Z,6.70
2023-04-27T04:11:14.785Z,6.70
2023-04-27T04:13:43.111Z,6.60
2023-04-27T04:16:11.520Z,6.60
2023-04-27T04:18:39.385Z,6.60
2023-04-27T04:21:07.141Z,6.50
2023-04-27T04:23:34.874Z,6.50
2023-04-27T04:26:02.950Z,6.50
2023-04-27T04:28:29.903Z,6.50
2023-04-27T04:30:56.845Z,6.50
2023-04-27T04:33:24.684Z,6.50
2023-04-27T04:35:52.143Z,6.50
2023-04-27T04:38:20.020Z,6.50
2023-04-27T04:40:50.192Z,6.50
2023-04-27T04:43:18.236Z,6.50
2023-04-27T04:45:46.739Z,6.50
2023-04-27T04:48:17.201Z,6.60
2023-04-27T04:50:44.795Z,6.60
2023-04-27T04:53:12.389Z,6.60
2023-04-27T04:55:40.257Z,6.60
2023-04-27T04:58:08.280Z,6.60
2023-04-27T05:00:35.479Z,6.60
2023-04-27T05:03:03.480Z,6.60
2023-04-27T05:05:31.158Z,6.60
2023-04-27T05:07:59.497Z,6.60
2023-04-27T05:10:27.532Z,6.60
2023-04-27T05:12:55.004Z,6.70
2023-04-27T05:15:25.000Z,6.70
2023-04-27T05:17:54.704Z,6.70
2023-04-27T05:20:22.172Z,6.70
2023-04-27T05:22:49.893Z,6.70
2023-04-27T05:25:20.897Z,6.70
2023-04-27T05:27:48.571Z,6.80
2023-04-27T05:30:16.428Z,6.80
2023-04-27T05:32:44.225Z,6.90
2023-04-27T05:35:11.957Z,6.90
2023-04-27T05:37:39.352Z,6.90
2023-04-27T05:40:09.779Z,7.00
2023-04-27T05:42:37.953Z,7.00
2023-04-27T05:45:05.974Z,7.00
2023-04-27T05:47:33.838Z,7.00
2023-04-27T05:50:01.484Z,7.10
2023-04-27T05:52:31.505Z,7.10
2023-04-27T05:54:58.832Z,7.20
2023-04-27T05:57:27.002Z,7.20
2023-04-27T05:59:54.142Z,7.20
2023-04-27T06:02:22.771Z,7.30
2023-04-27T06:04:50.420Z,7.30
2023-04-27T06:07:21.264Z,7.30
2023-04-27T06:09:48.476Z,7.40
2023-04-27T06:12:16.221Z,7.40
2023-04-27T06:14:44.137Z,7.50
2023-04-27T06:17:12.357Z,7.50
2023-04-27T06:19:40.077Z,7.60
2023-04-27T06:22:07.191Z,7.60
2023-04-27T06:24:39.423Z,7.70
2023-04-27T06:27:06.491Z,7.70
2023-04-27T06:29:33.469Z,7.80
2023-04-27T06:32:00.524Z,7.80
2023-04-27T06:34:28.185Z,7.90
2023-04-27T06:36:54.875Z,8.00
2023-04-27T06:39:25.373Z,8.10
2023-04-27T06:41:52.853Z,8.20
2023-04-27T06:44:19.659Z,8.20
2023-04-27T06:46:47.551Z,8.30
2023-04-27T06:49:14.975Z,8.30
2023-04-27T06:51:42.163Z,8.40
2023-04-27T06:54:09.162Z,8.40
2023-04-27T06:56:36.595Z,8.50
2023-04-27T06:59:07.546Z,8.50
2023-04-27T07:01:35.231Z,8.70
2023-04-27T07:04:03.981Z,8.70
2023-04-27T07:06:31.822Z,8.80
2023-04-27T07:08:59.720Z,8.90
2023-04-27T07:11:27.456Z,9.00
2023-04-27T07:13:54.591Z,9.20
2023-04-27T07:16:22.334Z,9.30
2023-04-27T07:18:49.519Z,9.40
2023-04-27T07:21:16.980Z,9.40
2023-04-27T07:23:47.212Z,9.50
2023-04-27T07:26:14.287Z,9.60
2023-04-27T07:28:41.776Z,9.70
2023-04-27T07:31:09.285Z,9.70
2023-04-27T07:33:40.596Z,9.70
2023-04-27T07:36:07.964Z,9.80
2023-04-27T07:38:35.813Z,10.00
2023-04-27T07:41:06.258Z,10.10
2023-04-27T07:43:34.031Z,10.30
2023-04-27T07:46:05.558Z,10.40
2023-04-27T07:48:33.413Z,10.50
2023-04-27T07:51:00.373Z,10.50
2023-04-27T07:53:28.936Z,10.70
2023-04-27T07:55:56.778Z,10.90
2023-04-27T07:58:24.211Z,11.00
2023-04-27T08:00:58.131Z,11.20
2023-04-27T08:03:25.259Z,11.30
2023-04-27T08:05:53.195Z,11.40
2023-04-27T08:08:21.761Z,11.30
2023-04-27T08:10:49.250Z,11.40
2023-04-27T08:13:17.094Z,11.60
2023-04-27T08:15:43.865Z,11.70
2023-04-27T08:18:10.962Z,11.80
2023-04-27T08:20:37.890Z,11.80
2023-04-27T08:23:06.057Z,11.80
2023-04-27T08:25:33.520Z,11.90
2023-04-27T08:28:01.447Z,11.90
2023-04-27T08:30:28.718Z,12.00
2023-04-27T08:32:56.761Z,12.10
2023-04-27T08:35:24.511Z,12.10
2023-04-27T08:37:53.008Z,12.10
2023-04-27T08:40:20.644Z,12.10
2023-04-27T08:43:00.101Z,12.30
2023-04-27T08:45:29.463Z,12.30
2023-04-27T08:47:57.295Z,12.50
2023-04-27T08:50:24.791Z,12.50
2023-04-27T08:52:53.188Z,12.60
2023-04-27T08:55:20.083Z,12.70
2023-04-27T08:57:57.016Z,12.90
2023-04-27T09:00:27.401Z,13.10
2023-04-27T09:02:55.463Z,13.20
2023-04-27T09:05:26.946Z,13.10
2023-04-27T09:08:09.661Z,13.10
2023-04-27T09:10:50.864Z,13.00
2023-04-27T09:13:18.570Z,12.90
2023-04-27T09:15:50.929Z,13.00
2023-04-27T09:18:23.181Z,13.10
2023-04-27T09:20:52.024Z,13.30
2023-04-27T09:23:37.569Z,13.50
2023-04-27T09:26:10.078Z,13.50
2023-04-27T09:28:40.554Z,13.50
2023-04-27T09:31:09.482Z,13.50
2023-04-27T09:33:36.665Z,13.40
2023-04-27T09:36:06.551Z,13.50
2023-04-27T09:38:34.065Z,13.60
2023-04-27T09:41:01.505Z,13.70
2023-04-27T09:43:29.892Z,13.70
2023-04-27T09:45:57.746Z,13.90
2023-04-27T09:48:26.222Z,14.00
2023-04-27T09:50:53.484Z,14.10
2023-04-27T09:53:25.156Z,14.00
2023-04-27T09:56:07.120Z,14.00
2023-04-27T09:59:07.810Z,13.90
2023-04-27T10:01:55.714Z,14.10
2023-04-27T10:04:34.984Z,14.30
2023-04-27T10:07:13.177Z,14.50
2023-04-27T10:09:47.630Z,14.50
2023-04-27T10:12:28.015Z,14.70
2023-04-27T10:14:59.909Z,14.80
2023-04-27T10:17:35.811Z,14.70
2023-04-27T10:20:04.554Z,14.70
2023-04-27T10:22:41.525Z,14.90
2023-04-27T10:25:23.259Z,14.80
2023-04-27T10:28:01.400Z,15.00
2023-04-27T10:30:39.286Z,15.10
2023-04-27T10:33:10.981Z,15.20
2023-04-27T10:35:44.575Z,15.40
2023-04-27T10:38:18.221Z,15.20
2023-04-27T10:40:54.046Z,15.10
2023-04-27T10:43:27.860Z,15.10
2023-04-27T10:45:55.701Z,15.30
2023-04-27T10:48:22.493Z,15.60
2023-04-27T10:50:51.722Z,15.70
2023-04-27T10:53:18.762Z,15.60
2023-04-27T10:55:45.534Z,15.60
2023-04-27T10:58:12.526Z,15.70
2023-04-27T11:00:44.171Z,15.70
2023-04-27T11:03:21.025Z,15.60
2023-04-27T11:05:49.226Z,15.50
2023-04-27T11:08:21.424Z,15.60
2023-04-27T11:10:50.292Z,15.80
2023-04-27T11:13:28.262Z,16.00
2023-04-27T11:15:57.876Z,15.90
2023-04-27T11:18:32.542Z,15.90
2023-04-27T11:21:09.480Z,16.00
2023-04-27T11:23:38.165Z,16.00
2023-04-27T11:26:14.661Z,16.20
2023-04-27T11:28:42.713Z,16.30
2023-04-27T11:31:09.779Z,16.40
2023-04-27T11:33:36.815Z,16.50
2023-04-27T11:36:03.682Z,16.70
2023-04-27T11:38:34.047Z,16.50
2023-04-27T11:41:04.143Z,16.40
2023-04-27T11:43:31.678Z,16.50
2023-04-27T11:45:58.925Z,16.80
2023-04-27T11:48:28.335Z,17.00
2023-04-27T11:50:59.750Z,16.90
2023-04-27T11:53:38.772Z,16.80
2023-04-27T11:56:10.670Z,16.80
2023-04-27T11:58:39.038Z,16.90
2023-04-27T12:01:06.398Z,16.80
2023-04-27T12:03:33.727Z,17.00
2023-04-27T12:06:16.098Z,17.10
2023-04-27T12:08:47.903Z,17.10
2023-04-27T12:11:15.042Z,17.30
2023-04-27T12:13:41.831Z,17.40
2023-04-27T12:16:08.585Z,17.60
2023-04-27T12:18:35.330Z,17.60
2023-04-27T12:21:03.485Z,17.40
2023-04-27T12:23:31.024Z,17.20
2023-04-27T12:25:57.784Z,17.40
2023-04-27T12:28:24.510Z,17.40
2023-04-27T12:30:51.503Z,17.60
2023-04-27T12:33:18.304Z,17.80
2023-04-27T12:35:46.092Z,17.90
2023-04-27T12:38:13.068Z,18.00
2023-04-27T12:40:39.813Z,18.00
2023-04-27T12:43:08.350Z,18.10
2023-04-27T12:45:35.250Z,18.50
2023-04-27T12:48:03.799Z,18.70
2023-04-27T12:50:39.026Z,18.90
2023-04-27T12:53:05.782Z,19.10
2023-04-27T12:55:34.458Z,18.80
2023-04-27T12:58:02.462Z,18.50
2023-04-27T13:00:29.884Z,18.60
2023-04-27T13:02:57.394Z,18.80
2023-04-27T13:05:24.484Z,18.90
2023-04-27T13:07:51.170Z,19.00
2023-04-27T13:10:18.107Z,19.10
2023-04-27T13:12:46.038Z,19.50
2023-04-27T13:15:12.849Z,19.50
2023-04-27T13:17:40.998Z,19.30
2023-04-27T13:20:09.734Z,19.30
2023-04-27T13:22:36.592Z,19.00
2023-04-27T13:25:03.662Z,19.10
2023-04-27T13:27:30.446Z,19.80
2023-04-27T13:29:57.132Z,20.40
2023-04-27T13:32:23.852Z,20.60
2023-04-27T13:34:50.666Z,20.70
2023-04-27T13:37:18.368Z,21.30
2023-04-27T13:39:45.632Z,22.00
2023-04-27T13:42:13.918Z,22.20
2023-04-27T13:44:41.193Z,22.40
2023-04-27T13:47:08.366Z,22.70
2023-04-27T13:49:35.455Z,22.70
2023-04-27T13:52:02.798Z,22.60
2023-04-27T13:54:30.034Z,22.70
2023-04-27T13:56:58.283Z,22.70
2023-04-27T13:59:25.748Z,23.00
2023-04-27T14:01:53.724Z,23.00
2023-04-27T14:04:21.050Z,23.40
2023-04-27T14:06:48.989Z,23.50
2023-04-27T14:09:16.624Z,23.40
2023-04-27T14:11:56.356Z,23.00
2023-04-27T14:14:24.624Z,22.90
2023-04-27T14:16:52.734Z,22.60
2023-04-27T14:19:20.882Z,21.70
2023-04-27T14:21:51.910Z,21.30
2023-04-27T14:24:19.665Z,20.90
2023-04-27T14:26:47.838Z,20.10
2023-04-27T14:29:15.482Z,19.50
2023-04-27T14:31:43.253Z,19.20
2023-04-27T14:34:11.251Z,19.10
2023-04-27T14:36:38.455Z,18.90
2023-04-27T14:39:07.067Z,18.80
2023-04-27T14:41:36.770Z,18.60
2023-04-27T14:44:07.728Z,18.50
2023-04-27T14:46:35.758Z,18.60
2023-04-27T14:49:03.007Z,18.60
2023-04-27T14:51:30.126Z,18.20
2023-04-27T14:53:57.282Z,18.20
2023-04-27T14:56:25.054Z,18.10
2023-04-27T14:58:52.379Z,18.10
2023-04-27T15:01:19.544Z,18.20
2023-04-27T15:03:47.771Z,18.10
2023-04-27T15:06:17.566Z,18.00
2023-04-27T15:08:45.141Z,17.90
2023-04-27T15:11:12.289Z,18.00
2023-04-27T15:13:39.228Z,18.10
2023-04-27T15:16:07.461Z,18.00
2023-04-27T15:18:35.638Z,18.10
2023-04-27T15:21:02.787Z,18.10
2023-04-27T15:23:30.642Z,18.10
2023-04-27T15:26:01.132Z,18.20
2023-04-27T15:28:28.688Z,18.10
2023-04-27T15:30:56.798Z,18.00
2023-04-27T15:33:24.262Z,17.80
2023-04-27T15:35:51.816Z,17.80
2023-04-27T15:38:20.185Z,18.00
2023-04-27T15:40:48.015Z,18.00
2023-04-27T15:43:15.281Z,18.10
2023-04-27T15:45:44.274Z,18.00
2023-04-27T15:48:15.675Z,18.20
2023-04-27T15:50:45.371Z,18.20
2023-04-27T15:53:12.299Z,18.10
2023-04-27T15:55:39.614Z,18.20
2023-04-27T15:58:06.560Z,18.20
2023-04-27T16:00:33.704Z,18.20
2023-04-27T16:03:00.942Z,18.10
2023-04-27T16:05:27.974Z,18.00
2023-04-27T16:07:54.830Z,18.00
2023-04-27T16:10:21.573Z,18.00
2023-04-27T16:12:48.352Z,18.00
2023-04-27T16:15:15.094Z,17.90
2023-04-27T16:17:41.983Z,17.90
2023-04-27T16:20:09.528Z,17.80
2023-04-27T16:22:37.690Z,17.80
2023-04-27T16:25:10.268Z,17.80
2023-04-27T16:27:38.310Z,17.80
2023-04-27T16:30:06.665Z,17.80
2023-04-27T16:32:35.403Z,17.70
2023-04-27T16:35:03.063Z,17.80
2023-04-27T16:37:29.925Z,17.80
2023-04-27T16:39:59.745Z,17.80
2023-04-27T16:42:26.605Z,17.80
2023-04-27T16:44:53.375Z,17.70
2023-04-27T16:47:20.123Z,17.60
2023-04-27T16:49:46.917Z,17.60
2023-04-27T16:52:13.673Z,17.50
2023-04-27T16:54:41.467Z,17.40
2023-04-27T16:57:08.311Z,17.40
2023-04-27T16:59:35.092Z,17.40
2023-04-27T17:02:16.316Z,17.40
2023-04-27T17:04:48.333Z,17.20
2023-04-27T17:07:15.110Z,17.10
2023-04-27T17:09:42.032Z,17.10
2023-04-27T17:12:12.277Z,17.10
2023-04-27T17:14:39.194Z,17.00
2023-04-27T17:17:06.340Z,16.90
2023-04-27T17:19:33.081Z,16.90
2023-04-27T17:21:59.915Z,16.80
2023-04-27T17:24:26.947Z,16.70
2023-04-27T17:26:54.955Z,16.60
2023-04-27T17:29:21.953Z,16.60
2023-04-27T17:31:50.148Z,16.60
2023-04-27T17:34:17.837Z,16.50
2023-04-27T17:36:45.886Z,16.40
2023-04-27T17:39:13.739Z,16.30
2023-04-27T17:41:41.084Z,16.30
2023-04-27T17:44:08.117Z,16.30
2023-04-27T17:46:34.929Z,16.30
2023-04-27T17:49:01.726Z,16.20
2023-04-27T17:51:28.487Z,16.10
2023-04-27T17:53:55.258Z,16.10
2023-04-27T17:56:22.473Z,16.00
2023-04-27T17:58:49.232Z,16.00
2023-04-27T18:01:16.147Z,15.90
2023-04-27T18:03:43.147Z,16.00
2023-04-27T18:06:09.994Z,15.90
2023-04-27T18:08:36.688Z,15.80
2023-04-27T18:11:03.522Z,15.80
2023-04-27T18:13:32.235Z,15.90
2023-04-27T18:15:59.326Z,15.80
2023-04-27T18:18:26.920Z,15.80
2023-04-27T18:20:53.707Z,15.70
2023-04-27T18:23:20.778Z,15.70
2023-04-27T18:25:47.538Z,15.70
2023-04-27T18:28:14.319Z,15.70
2023-04-27T18:30:41.381Z,15.70
2023-04-27T18:33:08.320Z,15.60
2023-04-27T18:35:35.282Z,15.60
2023-04-27T18:38:03.372Z,15.50
2023-04-27T18:40:30.698Z,15.50
2023-04-27T18:42:57.641Z,15.50
2023-04-27T18:45:24.534Z,15.40
2023-04-27T18:47:51.677Z,15.30
2023-04-27T18:50:19.164Z,15.40
2023-04-27T18:52:46.678Z,15.30
2023-04-27T18:55:17.747Z,15.30
2023-04-27T18:57:45.568Z,15.20
2023-04-27T19:00:13.100Z,15.20
2023-04-27T19:02:40.386Z,15.20
2023-04-27T19:05:12.850Z,15.30
2023-04-27T19:07:40.937Z,15.20
2023-04-27T19:10:08.424Z,15.20
2023-04-27T19:12:35.889Z,15.20
2023-04-27T19:15:03.081Z,15.10
2023-04-27T19:17:30.436Z,15.00
2023-04-27T19:19:57.451Z,15.00
2023-04-27T19:22:24.586Z,15.00
2023-04-27T19:24:51.389Z,14.90
2023-04-27T19:27:18.093Z,14.80
2023-04-27T19:29:51.974Z,14.70
2023-04-27T19:32:19.650Z,14.70
2023-04-27T19:34:46.741Z,14.60
2023-04-27T19:37:13.726Z,14.60
2023-04-27T19:39:40.515Z,14.60
2023-04-27T19:42:07.264Z,14.60
2023-04-27T19:44:34.051Z,14.50
2023-04-27T19:47:00.979Z,14.50
2023-04-27T19:49:32.716Z,14.50
2023-04-27T19:52:00.180Z,14.50
2023-04-27T19:54:26.988Z,14.40
2023-04-27T19:56:54.814Z,14.40
2023-04-27T19:59:21.961Z,14.40
2023-04-27T20:01:48.867Z,14.30
2023-04-27T20:04:17.709Z,14.30
2023-04-27T20:06:45.044Z,14.30
2023-04-27T20:09:11.851Z,14.30
2023-04-27T20:11:38.623Z,14.30
2023-04-27T20:14:05.595Z,14.20
2023-04-27T20:16:32.394Z,14.20
2023-04-27T20:18:59.187Z,14.10
2023-04-27T20:21:27.987Z,14.10
2023-04-27T20:23:55.001Z,14.10
2023-04-27T20:26:22.529Z,14.10
2023-04-27T20:28:49.366Z,14.00
2023-04-27T20:31:16.521Z,14.10
2023-04-27T20:33:43.458Z,14.10
2023-04-27T20:36:17.038Z,14.00
2023-04-27T20:38:45.184Z,14.00
2023-04-27T20:41:15.229Z,14.00
2023-04-27T20:43:41.939Z,14.00
2023-04-27T20:46:11.050Z,13.90
2023-04-27T20:48:38.179Z,13.90
2023-04-27T20:51:05.026Z,13.90
2023-04-27T20:53:31.905Z,13.90
2023-04-27T20:55:58.738Z,13.90
2023-04-27T20:58:25.695Z,13.90
2023-04-27T21:00:52.495Z,13.90
2023-04-27T21:03:19.335Z,13.90
2023-04-27T21:05:47.212Z,13.90
2023-04-27T21:08:14.035Z,13.90
2023-04-27T21:10:41.199Z,13.90
2023-04-27T21:13:07.973Z,13.90
2023-04-27T21:15:34.808Z,13.90
2023-04-27T21:18:01.759Z,13.90
2023-04-27T21:20:28.619Z,13.90
2023-04-27T21:22:56.146Z,13.90
2023-04-27T21:25:23.829Z,13.90
2023-04-27T21:27:51.002Z,13.90
2023-04-27T21:30:17.861Z,13.90
2023-04-27T21:32:44.895Z,13.90
2023-04-27T21:35:11.793Z,13.90
2023-04-27T21:37:38.541Z,13.90
2023-04-27T21:40:06.330Z,13.90
2023-04-27T21:42:33.006Z,13.90
2023-04-27T21:44:59.939Z,14.00
2023-04-27T21:47:26.851Z,14.00
2023-04-27T21:49:53.831Z,14.00
2023-04-27T21:52:21.656Z,14.00
2023-04-27T21:54:48.635Z,14.00
2023-04-27T21:57:16.582Z,14.00
2023-04-27T21:59:44.379Z,14.00
2023-04-27T22:02:11.136Z,14.00
2023-04-27T22:04:39.043Z,14.00
2023-04-27T22:07:08.079Z,14.00
2023-04-27T22:09:35.693Z,14.00
2023-04-27T22:12:05.740Z,14.00
2023-04-27T22:14:32.786Z,14.00
2023-04-27T22:17:00.838Z,14.00
2023-04-27T22:19:28.700Z,14.00
2023-04-27T22:21:55.724Z,14.00
2023-04-27T22:24:22.822Z,14.00
2023-04-27T22:26:49.585Z,14.00
2023-04-27T22:29:16.582Z,14.00
2023-04-27T22:31:44.526Z,14.00
2023-04-27T22:34:14.470Z,14.00
2023-04-27T22:36:41.424Z,14.00
2023-04-27T22:39:08.363Z,14.00
2023-04-27T22:41:35.128Z,14.00
2023-04-27T22:44:02.289Z,14.00
2023-04-27T22:46:29.148Z,14.00
2023-04-27T22:48:56.547Z,14.00
2023-04-27T22:51:23.934Z,14.00
2023-04-27T22:53:50.758Z,13.90
2023-04-27T22:56:17.521Z,13.90
2023-04-27T22:58:44.222Z,13.90
2023-04-27T23:01:11.092Z,13.90
2023-04-27T23:03:38.518Z,14.00
2023-04-27T23:06:05.780Z,13.90
2023-04-27T23:08:32.437Z,13.90
2023-04-27T23:10:59.134Z,13.90
2023-04-27T23:13:27.502Z,13.90
2023-04-27T23:15:55.290Z,13.90
2023-04-27T23:18:22.598Z,13.90
2023-04-27T23:20:56.365Z,13.90
2023-04-27T23:23:23.940Z,13.90
2023-04-27T23:25:51.710Z,13.90
2023-04-27T23:28:19.611Z,13.90
2023-04-27T23:30:53.923Z,13.90
2023-04-27T23:33:22.300Z,13.90
2023-04-27T23:35:49.716Z,13.90
2023-04-27T23:38:17.798Z,13.90
2023-04-27T23:40:45.149Z,13.90
2023-04-27T23:43:16.045Z,13.90
2023-04-27T23:45:51.803Z,13.90
2023-04-27T23:48:23.390Z,13.90
2023-04-27T23:51:02.586Z,13.90
2023-04-27T23:53:30.626Z,13.80
2023-04-27T23:55:58.227Z,13.80
2023-04-27T23:58:26.700Z,13.80
